createdAt,value
2017-09-15T16:00:30.705Z,20.50
2017-09-15T16:02:59.984Z,21.00
2017-09-15T16:05:29.785Z,20.50
2017-09-15T16:14:55.352Z,20.20
2017-09-15T16:25:49.435Z,20.70
2017-09-15T17:58:41.922Z,25.70
2017-09-15T18:01:09.494Z,25.80
2017-09-15T18:03:37.322Z,25.80
2017-09-15T18:06:05.321Z,26.00
2017-09-15T18:08:33.178Z,26.10
2017-09-15T18:11:01.450Z,26.20
2017-09-15T18:13:29.022Z,26.20
2017-09-15T18:15:56.806Z,26.20
2017-09-15T18:18:25.437Z,26.30
2017-09-15T18:20:52.993Z,26.20
2017-09-15T18:23:21.237Z,26.00
2017-09-15T18:25:48.778Z,25.90
2017-09-15T18:28:18.502Z,26.50
2017-09-15T18:30:46.059Z,26.50
2017-09-15T18:33:13.772Z,26.30
2017-09-15T18:35:41.905Z,25.90
2017-09-15T18:38:10.169Z,25.60
2017-09-15T18:40:39.586Z,25.20
2017-09-15T18:43:07.093Z,25.20
2017-09-15T18:45:35.238Z,25.10
2017-09-15T18:48:03.031Z,25.00
2017-09-15T18:50:31.302Z,24.90
2017-09-15T18:52:59.042Z,24.90
2017-09-15T18:55:26.883Z,24.80
2017-09-15T18:57:54.438Z,24.80
2017-09-15T19:00:22.269Z,24.80
2017-09-15T19:02:50.061Z,24.80
2017-09-15T19:05:17.857Z,24.80
2017-09-15T19:07:46.580Z,24.80
2017-09-15T21:19:09.927Z,19.50
2017-09-15T21:21:40.275Z,19.50
2017-09-15T21:24:09.935Z,19.50
2017-09-15T21:26:39.847Z,19.60
2017-09-15T21:29:10.515Z,19.60
2017-09-15T21:31:42.525Z,19.70
2017-09-15T21:34:12.162Z,19.70
2017-09-15T21:36:42.096Z,19.70
2017-09-15T21:39:11.849Z,19.70
2017-09-15T21:41:41.371Z,19.70
2017-09-15T22:00:02.660Z,19.70
2017-09-15T22:02:32.142Z,19.70
2017-09-15T22:05:02.388Z,19.60
2017-09-15T22:07:32.619Z,19.60
2017-09-15T22:10:02.310Z,19.60
2017-09-15T22:12:31.817Z,19.60
2017-09-15T22:15:01.281Z,19.60
2017-09-15T22:17:31.572Z,19.70
2017-09-15T22:20:01.259Z,19.70
2017-09-15T22:22:30.680Z,19.70
2017-09-15T22:25:00.090Z,19.80
2017-09-15T22:27:29.500Z,19.90
2017-09-15T22:29:58.957Z,19.90
2017-09-15T22:32:28.434Z,19.90
2017-09-15T22:34:58.682Z,19.90
2017-09-15T22:37:28.244Z,19.80
2017-09-15T22:39:57.679Z,19.90
2017-09-15T22:42:28.144Z,19.90
2017-09-15T22:44:59.749Z,19.90
2017-09-15T22:47:37.282Z,20.10
2017-09-15T22:50:11.243Z,20.10
2017-09-15T22:52:40.764Z,20.20
2017-09-15T22:55:10.186Z,20.60
2017-09-15T22:57:43.274Z,20.70
2017-09-15T23:00:18.962Z,20.80
